createdAt,value
2024-01-26T00:03:02.844Z,12.322147651006711
2024-01-26T00:06:23.717Z,14.832214765100671
2024-01-26T00:09:44.526Z,18.114093959731544
2024-01-26T00:14:37.680Z,16.2751677852349
2024-01-26T00:19:34.554Z,18.610738255033556
2024-01-26T00:22:54.615Z,12.724832214765101
2024-01-26T00:26:14.606Z,15.845637583892618
2024-01-26T00:29:35.378Z,15.0
2024-01-26T00:32:55.108Z,15.04026845637584
2024-01-26T00:36:16.237Z,13.442953020134228
2024-01-26T00:40:41.073Z,14.134228187919463
2024-01-26T00:44:01.943Z,12.805369127516778
2024-01-26T00:47:22.433Z,15.093959731543624
2024-01-26T00:50:43.439Z,14.899328859060402
2024-01-26T00:54:03.473Z,18.91275167785235
2024-01-26T00:57:24.674Z,15.026845637583893
2024-01-26T01:00:45.026Z,15.080536912751677
2024-01-26T01:04:05.206Z,17.563758389261746
2024-01-26T01:07:24.940Z,16.44295302013423
2024-01-26T01:10:46.239Z,14.120805369127517
2024-01-26T01:14:06.196Z,11.85234899328859
2024-01-26T01:17:26.503Z,14.644295302013424
2024-01-26T01:20:46.470Z,13.798657718120806
2024-01-26T01:24:06.484Z,14.604026845637584
2024-01-26T01:30:02.770Z,12.221476510067115
2024-01-26T01:33:22.598Z,13.261744966442953
2024-01-26T01:36:42.443Z,16.16778523489933
2024-01-26T01:42:07.465Z,13.228187919463087
2024-01-26T01:45:27.809Z,11.61744966442953
2024-01-26T01:48:48.064Z,10.389261744966444
2024-01-26T01:52:08.420Z,15.845637583892618
2024-01-26T01:55:28.614Z,14.046979865771812
2024-01-26T01:58:48.803Z,14.416107382550335
2024-01-26T02:02:09.796Z,17.315436241610737
2024-01-26T02:05:30.434Z,14.416107382550335
2024-01-26T02:10:34.620Z,14.838926174496644
2024-01-26T02:13:54.438Z,14.986577181208053
2024-01-26T02:17:15.337Z,16.20805369127517
2024-01-26T02:20:52.512Z,13.798657718120806
2024-01-26T02:28:11.550Z,13.046979865771812
2024-01-26T02:31:31.471Z,11.953020134228188
2024-01-26T02:34:51.384Z,15.201342281879194
2024-01-26T02:41:17.040Z,16.91275167785235
2024-01-26T02:45:50.466Z,16.610738255033556
2024-01-26T02:52:34.119Z,16.684563758389263
2024-01-26T02:55:54.146Z,13.825503355704697
2024-01-26T02:59:14.711Z,17.25503355704698
2024-01-26T03:04:19.236Z,18.65771812080537
2024-01-26T03:07:39.624Z,14.342281879194632
2024-01-26T03:10:59.486Z,13.791946308724832
2024-01-26T03:14:20.586Z,16.86577181208054
2024-01-26T03:17:40.630Z,13.12751677852349
2024-01-26T03:21:00.122Z,17.624161073825505
2024-01-26T03:24:19.822Z,14.630872483221477
2024-01-26T03:27:39.707Z,16.671140939597315
2024-01-26T03:30:59.864Z,16.879194630872483
2024-01-26T03:34:20.800Z,17.42953020134228
2024-01-26T03:37:40.832Z,15.557046979865772
2024-01-26T03:41:01.207Z,14.765100671140939
2024-01-26T03:44:23.518Z,19.42281879194631
2024-01-26T03:47:43.610Z,16.503355704697988
2024-01-26T03:51:04.561Z,21.21476510067114
2024-01-26T03:54:25.037Z,18.288590604026847
2024-01-26T03:57:44.907Z,17.40268456375839
2024-01-26T04:01:04.972Z,12.348993288590604
2024-01-26T04:04:26.010Z,15.78523489932886
2024-01-26T04:07:46.198Z,13.006711409395972
2024-01-26T04:11:05.900Z,17.59731543624161
2024-01-26T04:14:26.136Z,15.221476510067115
2024-01-26T04:17:46.859Z,11.697986577181208
2024-01-26T04:21:06.393Z,15.798657718120806
2024-01-26T04:24:26.606Z,14.93288590604027
2024-01-26T04:30:10.824Z,11.342281879194632
2024-01-26T04:33:30.813Z,14.060402684563758
2024-01-26T04:36:50.892Z,20.335570469798657
2024-01-26T04:40:11.586Z,17.993288590604028
2024-01-26T04:43:31.732Z,18.20805369127517
2024-01-26T04:46:52.392Z,15.248322147651006
2024-01-26T04:50:12.903Z,18.892617449664428
2024-01-26T04:53:32.985Z,16.624161073825505
2024-01-26T05:00:10.795Z,18.845637583892618
2024-01-26T05:03:30.684Z,19.08724832214765
2024-01-26T05:09:59.842Z,20.845637583892618
2024-01-26T05:13:20.632Z,16.79194630872483
2024-01-26T05:22:40.605Z,18.885906040268456
2024-01-26T05:26:01.120Z,17.91946308724832
2024-01-26T05:29:23.887Z,14.281879194630873
2024-01-26T05:32:45.727Z,18.630872483221477
2024-01-26T05:38:59.769Z,16.114093959731544
2024-01-26T05:42:20.059Z,17.859060402684563
2024-01-26T05:45:40.014Z,15.966442953020135
2024-01-26T05:49:00.078Z,15.953020134228188
2024-01-26T05:52:28.318Z,16.946308724832214
2024-01-26T05:55:49.371Z,17.322147651006713
2024-01-26T05:59:10.714Z,16.543624161073826
2024-01-26T06:02:30.556Z,11.583892617449665
2024-01-26T06:05:50.772Z,16.44295302013423
2024-01-26T06:10:53.319Z,12.906040268456376
2024-01-26T06:14:13.056Z,13.48993288590604
2024-01-26T06:17:34.120Z,14.114093959731544
2024-01-26T06:20:54.062Z,13.657718120805368
2024-01-26T06:24:13.939Z,14.51006711409396
2024-01-26T06:28:06.480Z,13.986577181208053
2024-01-26T06:31:26.836Z,13.322147651006711
2024-01-26T06:34:47.248Z,9.409395973154362
2024-01-26T06:41:25.184Z,16.36241610738255
2024-01-26T06:44:45.985Z,13.771812080536913
2024-01-26T06:48:06.358Z,11.187919463087248
2024-01-26T06:51:27.406Z,14.751677852348994
2024-01-26T06:54:47.381Z,11.624161073825503
2024-01-26T06:58:07.672Z,9.778523489932885
2024-01-26T07:04:45.509Z,12.120805369127517
2024-01-26T07:08:06.291Z,8.308724832214764
2024-01-26T07:11:26.357Z,8.308724832214764
2024-01-26T07:14:46.547Z,10.503355704697986
2024-01-26T07:18:06.548Z,9.395973154362416
2024-01-26T07:21:44.547Z,7.590604026845638
2024-01-26T07:25:04.002Z,7.832214765100671
2024-01-26T07:28:24.874Z,7.926174496644295
2024-01-26T07:31:44.841Z,7.114093959731544
2024-01-26T07:35:05.228Z,5.523489932885906
2024-01-26T07:38:25.570Z,5.295302013422819
2024-01-26T07:44:22.180Z,4.402684563758389
2024-01-26T07:47:42.966Z,5.624161073825503
2024-01-26T07:51:03.118Z,5.704697986577181
2024-01-26T07:54:23.994Z,6.469798657718121
2024-01-26T07:57:44.516Z,5.4630872483221475
2024-01-26T08:01:04.053Z,4.953020134228188
2024-01-26T08:04:24.938Z,5.281879194630872
2024-01-26T08:07:45.115Z,5.395973154362416
2024-01-26T08:11:57.822Z,5.758389261744966
2024-01-26T08:15:18.277Z,6.906040268456376
2024-01-26T08:18:38.236Z,5.899328859060403
2024-01-26T08:21:58.399Z,7.308724832214765
2024-01-26T08:25:18.345Z,8.342281879194632
2024-01-26T08:28:37.923Z,7.342281879194631
2024-01-26T08:31:57.875Z,6.134228187919463
2024-01-26T08:35:17.839Z,6.516778523489933
2024-01-26T08:38:38.141Z,8.697986577181208
2024-01-26T08:44:51.164Z,7.543624161073826
2024-01-26T08:48:15.835Z,10.073825503355705
2024-01-26T08:51:36.187Z,10.563758389261745
2024-01-26T08:54:56.134Z,10.053691275167786
2024-01-26T08:58:17.212Z,6.590604026845638
2024-01-26T09:01:37.296Z,10.342281879194632
2024-01-26T09:04:57.236Z,9.523489932885907
2024-01-26T09:08:18.440Z,8.885906040268456
2024-01-26T09:11:38.795Z,7.993288590604027
2024-01-26T09:14:59.103Z,10.234899328859061
2024-01-26T09:18:19.857Z,11.563758389261745
2024-01-26T09:21:39.870Z,8.476510067114093
2024-01-26T09:24:59.984Z,9.221476510067115
2024-01-26T09:28:20.456Z,7.87248322147651
2024-01-26T09:31:41.113Z,4.348993288590604
2024-01-26T09:35:00.860Z,4.322147651006712
2024-01-26T09:38:21.259Z,5.879194630872483
2024-01-26T09:41:41.367Z,2.7986577181208054
2024-01-26T09:45:02.712Z,3.6711409395973154
2024-01-26T09:48:23.492Z,2.9060402684563758
2024-01-26T09:51:44.170Z,3.0939597315436242
2024-01-26T09:55:04.926Z,1.080536912751678
2024-01-26T09:58:25.578Z,2.684563758389262
2024-01-26T10:02:26.923Z,2.422818791946309
2024-01-26T10:05:47.883Z,1.348993288590604
2024-01-26T10:09:08.536Z,1.429530201342282
2024-01-26T10:12:29.073Z,1.3020134228187918
2024-01-26T10:15:49.800Z,1.3825503355704698
2024-01-26T10:19:10.992Z,1.5436241610738255
2024-01-26T10:22:30.968Z,0.5906040268456376
2024-01-26T10:25:50.834Z,1.8859060402684564
2024-01-26T10:29:11.932Z,0.9798657718120806
2024-01-26T10:32:32.368Z,1.1275167785234899
2024-01-26T10:35:52.240Z,0.6711409395973155
2024-01-26T10:39:13.724Z,0.9932885906040269
2024-01-26T10:44:40.311Z,1.4026845637583893
2024-01-26T10:48:01.182Z,1.1140939597315436
2024-01-26T10:51:41.720Z,1.5503355704697988
2024-01-26T10:55:01.644Z,0.8859060402684564
2024-01-26T10:58:22.157Z,0.174496644295302
2024-01-26T11:01:42.798Z,0.4966442953020134
2024-01-26T11:05:02.694Z,0.3087248322147651
2024-01-26T11:08:23.690Z,1.0067114093959733
2024-01-26T11:11:43.651Z,0.48322147651006714
2024-01-26T11:15:04.732Z,0.21476510067114093
2024-01-26T11:18:27.416Z,0.33557046979865773
2024-01-26T11:21:47.367Z,0.5100671140939598
2024-01-26T11:25:06.721Z,0.3087248322147651
2024-01-26T11:28:26.984Z,1.1275167785234899
2024-01-26T11:31:47.565Z,0.38926174496644295
2024-01-26T11:35:07.903Z,1.261744966442953
2024-01-26T11:38:28.091Z,2.1140939597315436
2024-01-26T11:41:48.279Z,2.704697986577181
2024-01-26T11:45:09.140Z,1.2483221476510067
2024-01-26T11:48:29.706Z,2.4295302013422817
2024-01-26T11:51:50.300Z,1.3020134228187918
2024-01-26T11:55:11.005Z,1.6174496644295302
2024-01-26T11:58:33.561Z,1.8791946308724832
2024-01-26T12:01:54.773Z,1.167785234899329
2024-01-26T12:05:27.986Z,2.87248322147651
2024-01-26T12:08:47.937Z,2.1879194630872485
2024-01-26T12:12:08.245Z,1.9597315436241611
2024-01-26T12:15:28.603Z,2.3758389261744965
2024-01-26T12:18:49.049Z,2.9395973154362416
2024-01-26T12:22:09.958Z,2.469798657718121
2024-01-26T12:25:30.519Z,3.469798657718121
2024-01-26T12:28:51.142Z,2.0
2024-01-26T12:33:59.358Z,1.9798657718120805
2024-01-26T12:37:20.069Z,2.3758389261744965
2024-01-26T12:40:40.320Z,3.5503355704697985
2024-01-26T12:44:00.285Z,3.5369127516778525
2024-01-26T12:47:22.871Z,2.248322147651007
2024-01-26T12:50:43.741Z,3.8926174496644297
2024-01-26T12:54:04.090Z,2.38255033557047
2024-01-26T12:57:24.902Z,1.778523489932886
2024-01-26T13:04:10.064Z,3.12751677852349
2024-01-26T13:07:30.779Z,4.718120805369128
2024-01-26T13:10:50.826Z,4.02013422818792
2024-01-26T13:14:11.183Z,2.5503355704697985
2024-01-26T13:17:31.578Z,4.577181208053691
2024-01-26T13:20:51.768Z,3.865771812080537
2024-01-26T13:24:12.240Z,3.9261744966442955
2024-01-26T13:27:32.098Z,3.859060402684564
2024-01-26T13:30:52.532Z,4.241610738255034
2024-01-26T13:34:12.538Z,2.8120805369127515
2024-01-26T13:39:29.512Z,4.657718120805369
2024-01-26T13:42:50.519Z,4.3624161073825505
2024-01-26T13:48:07.771Z,5.154362416107382
2024-01-26T13:51:31.821Z,3.9060402684563758
2024-01-26T13:54:52.168Z,4.302013422818792
2024-01-26T13:58:12.973Z,5.778523489932886
2024-01-26T14:01:33.012Z,4.093959731543624
2024-01-26T14:04:52.916Z,3.2751677852348995
2024-01-26T14:08:12.638Z,4.912751677852349
2024-01-26T14:13:45.835Z,3.865771812080537
2024-01-26T14:17:05.685Z,5.0134228187919465
2024-01-26T14:24:43.026Z,5.308724832214765
2024-01-26T14:28:02.986Z,5.993288590604027
2024-01-26T14:31:23.446Z,5.731543624161074
2024-01-26T14:34:43.488Z,5.496644295302014
2024-01-26T14:38:03.396Z,8.503355704697986
2024-01-26T14:41:23.652Z,7.040268456375839
2024-01-26T14:44:43.120Z,7.684563758389261
2024-01-26T14:48:03.226Z,8.577181208053691
2024-01-26T14:51:23.916Z,6.006711409395973
2024-01-26T14:54:43.913Z,7.033557046979865
2024-01-26T14:58:04.722Z,4.342281879194631
2024-01-26T15:04:17.796Z,5.369127516778524
2024-01-26T15:07:39.991Z,4.859060402684563
2024-01-26T15:11:02.112Z,5.382550335570469
2024-01-26T15:14:22.392Z,3.6442953020134228
2024-01-26T15:17:43.026Z,3.959731543624161
2024-01-26T15:21:03.089Z,5.89261744966443
2024-01-26T15:24:23.375Z,5.442953020134228
2024-01-26T15:27:44.079Z,3.0671140939597317
2024-01-26T15:35:35.455Z,4.530201342281879
2024-01-26T15:38:54.922Z,5.261744966442953
2024-01-26T15:42:15.420Z,3.5033557046979866
2024-01-26T15:45:35.324Z,2.8456375838926173
2024-01-26T15:48:55.446Z,4.389261744966443
2024-01-26T15:52:19.829Z,4.395973154362416
2024-01-26T15:58:49.831Z,4.23489932885906
2024-01-26T16:05:10.694Z,6.120805369127517
2024-01-26T16:08:32.010Z,5.771812080536913
2024-01-26T16:13:22.894Z,4.476510067114094
2024-01-26T16:16:43.014Z,5.389261744966443
2024-01-26T16:20:03.299Z,4.523489932885906
2024-01-26T16:23:24.160Z,3.785234899328859
2024-01-26T16:26:44.228Z,4.704697986577181
2024-01-26T16:30:04.624Z,4.684563758389261
2024-01-26T16:33:25.842Z,4.74496644295302
2024-01-26T16:36:45.953Z,5.0
2024-01-26T16:40:06.218Z,5.503355704697986
2024-01-26T16:43:26.572Z,3.859060402684564
2024-01-26T16:46:46.635Z,5.469798657718121
2024-01-26T16:53:13.804Z,4.946308724832215
2024-01-26T16:56:33.731Z,5.751677852348993
2024-01-26T17:03:59.426Z,3.208053691275168
2024-01-26T17:07:20.389Z,4.040268456375839
2024-01-26T17:10:40.554Z,6.093959731543624
2024-01-26T17:14:00.544Z,2.9865771812080535
2024-01-26T17:17:20.781Z,3.8993288590604025
2024-01-26T17:20:40.781Z,6.429530201342282
2024-01-26T17:24:00.932Z,5.906040268456376
2024-01-26T17:27:21.570Z,3.4496644295302015
2024-01-26T17:30:42.573Z,3.5503355704697985
2024-01-26T17:34:03.308Z,5.436241610738255
2024-01-26T17:37:23.420Z,4.550335570469799
2024-01-26T17:40:43.966Z,3.6711409395973154
2024-01-26T17:44:04.356Z,5.181208053691275
2024-01-26T17:47:25.803Z,3.8053691275167787
2024-01-26T17:50:47.202Z,4.100671140939597
2024-01-26T17:56:39.586Z,4.617449664429531
2024-01-26T17:59:59.450Z,3.859060402684564
2024-01-26T18:03:20.086Z,5.0134228187919465
2024-01-26T18:06:40.387Z,5.167785234899329
2024-01-26T18:10:01.574Z,6.221476510067114
2024-01-26T18:13:21.831Z,5.221476510067114
2024-01-26T18:16:41.786Z,6.510067114093959
2024-01-26T18:20:39.665Z,6.597315436241611
2024-01-26T18:23:59.486Z,3.966442953020134
2024-01-26T18:27:20.346Z,4.76510067114094
2024-01-26T18:30:41.131Z,6.516778523489933
2024-01-26T18:34:01.489Z,4.966442953020135
2024-01-26T18:37:22.886Z,4.724832214765101
2024-01-26T18:40:43.985Z,5.308724832214765
2024-01-26T18:44:04.764Z,7.4630872483221475
2024-01-26T18:47:25.054Z,6.046979865771812
2024-01-26T18:50:47.480Z,5.416107382550336
2024-01-26T18:55:38.041Z,6.785234899328859
2024-01-26T18:58:58.466Z,6.147651006711409
2024-01-26T19:02:18.309Z,4.201342281879195
2024-01-26T19:05:38.701Z,8.973154362416107
2024-01-26T19:08:58.716Z,8.355704697986576
2024-01-26T19:12:19.837Z,7.550335570469799
2024-01-26T19:15:39.303Z,5.832214765100671
2024-01-26T19:18:59.203Z,3.0671140939597317
2024-01-26T19:22:19.434Z,5.3355704697986575
2024-01-26T19:25:39.893Z,8.859060402684564
2024-01-26T19:29:00.481Z,6.624161073825503
2024-01-26T19:32:21.240Z,6.818791946308725
2024-01-26T19:35:41.255Z,7.275167785234899
2024-01-26T19:39:01.207Z,8.503355704697986
2024-01-26T19:42:22.282Z,6.0
2024-01-26T19:45:43.026Z,6.221476510067114
2024-01-26T19:49:04.112Z,8.348993288590604
2024-01-26T19:52:24.624Z,7.12751677852349
2024-01-26T19:55:44.602Z,7.275167785234899
2024-01-26T19:59:04.594Z,4.281879194630872
2024-01-26T20:02:25.674Z,9.651006711409396
2024-01-26T20:05:46.191Z,5.469798657718121
2024-01-26T20:10:05.151Z,4.261744966442953
2024-01-26T20:13:26.443Z,7.677852348993288
2024-01-26T20:16:46.817Z,5.557046979865772
2024-01-26T20:20:08.080Z,6.328859060402684
2024-01-26T20:23:31.067Z,10.073825503355705
2024-01-26T20:26:51.872Z,9.51006711409396
2024-01-26T20:30:13.043Z,8.120805369127517
2024-01-26T20:33:34.728Z,6.382550335570469
2024-01-26T20:36:55.070Z,5.489932885906041
2024-01-26T20:41:33.408Z,5.751677852348993
2024-01-26T20:44:53.887Z,6.409395973154362
2024-01-26T20:48:15.086Z,6.805369127516778
2024-01-26T20:51:35.308Z,11.174496644295303
2024-01-26T20:54:56.437Z,5.7114093959731544
2024-01-26T21:00:04.291Z,5.885906040268456
2024-01-26T21:03:25.277Z,8.697986577181208
2024-01-26T21:06:45.996Z,8.557046979865772
2024-01-26T21:10:05.895Z,6.241610738255034
2024-01-26T21:13:26.163Z,5.805369127516778
2024-01-26T21:19:21.847Z,8.906040268456376
2024-01-26T21:22:43.823Z,6.1610738255033555
2024-01-26T21:26:04.325Z,6.181208053691275
2024-01-26T21:29:25.215Z,10.503355704697986
2024-01-26T21:32:46.014Z,5.771812080536913
2024-01-26T21:36:06.610Z,6.932885906040268
2024-01-26T21:39:27.159Z,6.6644295302013425
2024-01-26T21:42:47.112Z,7.248322147651007
2024-01-26T21:46:07.168Z,7.617449664429531
2024-01-26T21:50:13.550Z,8.577181208053691
2024-01-26T21:56:31.114Z,6.510067114093959
2024-01-26T21:59:51.693Z,8.181208053691275
2024-01-26T22:05:48.418Z,6.852348993288591
2024-01-26T22:09:09.334Z,6.382550335570469
2024-01-26T22:12:30.059Z,6.530201342281879
2024-01-26T22:15:50.125Z,6.557046979865772
2024-01-26T22:19:46.226Z,6.281879194630872
2024-01-26T22:23:06.623Z,5.97986577181208
2024-01-26T22:26:26.899Z,4.597315436241611
2024-01-26T22:30:24.037Z,5.181208053691275
2024-01-26T22:33:43.525Z,7.194630872483222
2024-01-26T22:37:04.626Z,6.6375838926174495
2024-01-26T22:40:25.196Z,7.181208053691275
2024-01-26T22:43:45.682Z,7.6644295302013425
2024-01-26T22:47:06.137Z,6.832214765100671
2024-01-26T22:50:27.236Z,8.516778523489933
2024-01-26T22:53:48.243Z,6.302013422818792
2024-01-26T22:57:07.621Z,7.248322147651007
2024-01-26T23:00:28.987Z,6.496644295302014
2024-01-26T23:03:49.863Z,7.959731543624161
2024-01-26T23:07:11.185Z,5.785234899328859
2024-01-26T23:10:31.418Z,3.6912751677852347
2024-01-26T23:13:51.690Z,6.550335570469799
2024-01-26T23:17:13.250Z,6.375838926174497
2024-01-26T23:20:32.737Z,8.308724832214764
2024-01-26T23:23:52.458Z,5.946308724832215
2024-01-26T23:27:12.676Z,9.53020134228188
2024-01-26T23:30:33.021Z,7.208053691275167
2024-01-26T23:33:53.059Z,7.25503355704698
2024-01-26T23:37:15.302Z,5.919463087248322
2024-01-26T23:40:35.382Z,7.302013422818792
2024-01-26T23:43:55.312Z,6.590604026845638
2024-01-26T23:47:15.790Z,5.503355704697986
2024-01-26T23:50:36.461Z,6.939597315436242
2024-01-26T23:53:56.800Z,5.966442953020135
2024-01-26T23:57:17.922Z,6.798657718120805
